LFRK/CFR METAR and TAF weather

Enter ICAO airport designator
Station Type Date Time Source
LFRK METAR 2019/02/16 18:00 UTC NOAA

LFRK 161800Z AUTO 16003KT CAVOK 10/05 Q1023 NOSIG


Station Type Date Time Source
LFRK Decoded METAR 2019/02/16 18:00 UTC NOAA

Caen, France (LFRK) 49-11N 000-27W 67M
Feb 16, 2019 - 01:00 PM EST / 2019.02.16 1800 UTC
Wind: from the SSE (160 degrees) at 3 MPH (3 KT):0
Visibility: greater than 7 mile(s):0
Temperature: 50 F (10 C)
Dew Point: 41 F (5 C)
Relative Humidity: 71%
Pressure (altimeter): 30.21 in. Hg (1023 hPa)
ob: LFRK 161800Z AUTO 16003KT CAVOK 10/05 Q1023 NOSIG
cycle: 18

Station Type Date Time Source
LFRK TAF UTC NOAA

Error!


Example: see airport list